Time;durP1;ratioP1;P1;durP2;ratioP2;P2;SDS_P1;SDS_P2;PMS_P1;PMS_P2;Temp;Humidity;BMP_temperature;BMP_pressure;BME280_temperature;BME280_humidity;BME280_pressure;Samples;Min_cycle;Max_cycle;Signal;HPM_P1;HPM_P2
2023/07/20 00:07:36;;;;;;;2.00;0.40;;;;;;;;;;20847853;28;20228;-81
2023/07/20 00:17:39;;;;;;;1.13;0.52;;;;;;;;;;20862683;28;20247;-84
2023/07/20 00:27:41;;;;;;;1.02;0.55;;;;;;;;;;20861689;28;20298;-82
2023/07/20 00:37:43;;;;;;;1.02;0.45;;;;;;;;;;20854236;28;20241;-84
2023/07/20 00:47:45;;;;;;;2.83;0.60;;;;;;;;;;20838915;28;20387;-84
2023/07/20 00:57:47;;;;;;;1.55;0.50;;;;;;;;;;20859200;28;20286;-84
2023/07/20 01:08:09;;;;;;;0.93;0.50;;;;;;;;;;20809894;28;20236;-83
2023/07/20 01:18:11;;;;;;;2.08;0.57;;;;;;;;;;20840608;28;20244;-83
2023/07/20 01:28:13;;;;;;;1.30;0.50;;;;;;;;;;20828366;28;20283;-85
2023/07/20 01:38:15;;;;;;;1.10;0.52;;;;;;;;;;20842922;28;20217;-85
2023/07/20 01:48:16;;;;;;;2.42;0.55;;;;;;;;;;20823327;28;20219;-85
2023/07/20 01:58:18;;;;;;;0.65;0.40;;;;;;;;;;20834732;28;20539;-83
2023/07/20 02:08:20;;;;;;;2.05;0.52;;;;;;;;;;20740120;28;20248;-84
2023/07/20 02:18:21;;;;;;;1.20;0.50;;;;;;;;;;20885566;28;20228;-84
2023/07/20 02:28:23;;;;;;;0.50;0.40;;;;;;;;;;20823846;28;20600;-84
2023/07/20 02:38:25;;;;;;;2.08;0.60;;;;;;;;;;20817779;28;20224;-85
2023/07/20 02:48:27;;;;;;;1.15;0.40;;;;;;;;;;20849706;28;20283;-85
2023/07/20 02:58:29;;;;;;;0.98;0.50;;;;;;;;;;20829168;28;20229;-85
2023/07/20 03:08:30;;;;;;;1.80;0.50;;;;;;;;;;20821083;28;20526;-84
2023/07/20 03:18:32;;;;;;;1.23;0.60;;;;;;;;;;20862408;28;20290;-81
2023/07/20 03:28:37;;;;;;;0.65;0.43;;;23.00;95.20;;;;;;20820874;28;20720;-80
2023/07/20 03:38:40;;;;;;;1.13;0.40;;;;;;;;;;20782444;28;20581;-84
2023/07/20 03:48:41;;;;;;;1.40;0.40;;;;;;;;;;20804836;28;20252;-83
2023/07/20 03:58:43;;;;;;;0.70;0.40;;;;;;;;;;20826758;28;20935;-81
2023/07/20 04:08:47;;;;;;;0.88;0.57;;;;;;;;;;20848385;28;20220;-81
2023/07/20 04:18:49;;;;;;;1.00;0.50;;;;;;;;;;20827344;28;20200;-84
2023/07/20 04:28:52;;;;;;;0.85;0.47;;;;;;;;;;20861773;28;20233;-82
2023/07/20 04:39:08;;;;;;;0.80;0.50;;;;;;;;;;20850815;28;20211;-82
2023/07/20 04:49:14;;;;;;;0.80;0.50;;;;;;;;;;20867706;28;20312;-83
2023/07/20 04:59:18;;;;;;;1.48;0.60;;;;;;;;;;20836832;28;20231;-81
2023/07/20 05:09:20;;;;;;;1.40;0.52;;;;;;;;;;20780209;28;20302;-86
2023/07/20 05:19:22;;;;;;;2.45;0.70;;;;;;;;;;20852745;28;20545;-81
2023/07/20 05:29:25;;;;;;;2.55;0.80;;;;;;;;;;20823026;28;20237;-80
2023/07/20 05:39:28;;;;;;;4.43;0.60;;;;;;;;;;20838991;28;20215;-82
2023/07/20 05:49:30;;;;;;;3.53;1.52;;;;;;;;;;20854423;28;20288;-83
2023/07/20 05:59:31;;;;;;;1.33;0.60;;;;;;;;;;20864742;28;20254;-81
2023/07/20 06:09:33;;;;;;;2.45;0.70;;;;;;;;;;20850906;28;20713;-81
2023/07/20 06:19:35;;;;;;;1.67;0.82;;;24.30;97.80;;;;;;20839811;28;20229;-82
2023/07/20 06:29:37;;;;;;;0.98;0.63;;;;;;;;;;20834289;28;20257;-80
2023/07/20 06:39:39;;;;;;;0.93;0.45;;;;;;;;;;20829027;28;20229;-82
2023/07/20 06:49:40;;;;;;;0.73;0.40;;;;;;;;;;20809385;28;20574;-82
2023/07/20 06:59:42;;;;;;;0.98;0.50;;;;;;;;;;20811577;28;20228;-81
2023/07/20 07:09:44;;;;;;;1.23;0.63;;;;;;;;;;20818732;28;20228;-81
2023/07/20 07:19:45;;;;;;;0.85;0.60;;;;;;;;;;20840680;28;20225;-82
2023/07/20 07:29:48;;;;;;;1.65;0.50;;;;;;;;;;20861497;28;20257;-83
2023/07/20 07:39:49;;;;;;;1.73;0.63;;;;;;;;;;20802037;28;20292;-82
2023/07/20 07:49:51;;;;;;;1.92;0.60;;;;;;;;;;20832586;28;20233;-84
2023/07/20 07:59:53;;;;;;;0.80;0.40;;;;;;;;;;20849992;28;20771;-81
2023/07/20 08:09:55;;;;;;;2.72;0.50;;;;;;;;;;20838681;28;20257;-84
2023/07/20 08:19:56;;;;;;;1.13;0.47;;;;;;;;;;20813815;28;20281;-86
2023/07/20 08:29:58;;;;;;;0.52;0.35;;;;;;;;;;20886980;28;20212;-84
2023/07/20 08:40:00;;;;;;;1.65;0.60;;;;;;;;;;20827206;28;20689;-83
2023/07/20 08:50:05;;;;;;;1.85;0.52;;;;;;;;;;20864409;28;20263;-84
2023/07/20 09:00:12;;;;;;;1.33;0.60;;;;;;;;;;20811041;28;20235;-83
2023/07/20 09:10:14;;;;;;;0.60;0.50;;;;;;;;;;20880071;28;20228;-84
2023/07/20 09:20:19;;;;;;;1.42;0.55;;;;;;;;;;20803877;28;20290;-83
2023/07/20 09:30:25;;;;;;;0.88;0.50;;;26.60;87.50;;;;;;20849895;28;20236;-83
2023/07/20 09:40:28;;;;;;;0.73;0.47;;;;;;;;;;20862692;28;20220;-84
2023/07/20 09:50:29;;;;;;;0.85;0.63;;;;;;;;;;20820714;28;20783;-84
2023/07/20 10:00:31;;;;;;;1.10;0.47;;;;;;;;;;20877767;28;20240;-84
2023/07/20 10:10:34;;;;;;;1.25;0.47;;;;;;;;;;20822035;28;20371;-85
2023/07/20 10:20:36;;;;;;;2.55;0.80;;;;;;;;;;20850574;28;20756;-83
2023/07/20 10:30:39;;;;;;;0.32;0.30;;;;;;;;;;20824480;28;20316;-85
2023/07/20 10:40:41;;;;;;;1.05;0.63;;;;;;;;;;20830390;28;20492;-82
2023/07/20 10:50:43;;;;;;;0.70;0.43;;;;;;;;;;20782860;28;20241;-86
2023/07/20 11:00:59;;;;;;;0.55;0.40;;;;;;;;;;20814043;28;20259;-87
2023/07/20 11:11:23;;;;;;;1.00;0.55;;;26.60;74.70;;;;;;20831012;28;20570;-86
2023/07/20 11:21:25;;;;;;;3.58;0.50;;;;;;;;;;20834962;28;20234;-86
2023/07/20 11:31:27;;;;;;;2.22;0.65;;;;;;;;;;20820551;28;20221;-84
2023/07/20 11:41:29;;;;;;;0.60;0.38;;;;;;;;;;20855132;28;20289;-85
2023/07/20 11:51:31;;;;;;;0.90;0.40;;;;;;;;;;20839651;28;20567;-86
2023/07/20 12:01:35;;;;;;;0.40;0.35;;;;;;;;;;20817076;28;20238;-86
2023/07/20 12:11:39;;;;;;;1.45;0.38;;;;;;;;;;20855440;28;20583;-85
2023/07/20 12:21:42;;;;;;;1.65;0.47;;;;;;;;;;20868801;28;20233;-87
2023/07/20 12:31:44;;;;;;;1.35;0.40;;;;;;;;;;20862528;28;20218;-84
2023/07/20 12:41:59;;;;;;;0.90;0.50;;;;;;;;;;20823319;28;20233;-86
2023/07/20 12:52:08;;;;;;;0.20;0.20;;;;;;;;;;20861590;28;20225;-86
2023/07/20 13:02:10;;;;;;;0.98;0.60;;;;;;;;;;20832248;28;20271;-84
2023/07/20 13:12:11;;;;;;;0.75;0.35;;;;;;;;;;20839015;28;20217;-84
2023/07/20 13:22:14;;;;;;;1.08;0.40;;;;;;;;;;20853811;28;20303;-85
2023/07/20 13:32:17;;;;;;;1.10;0.50;;;;;;;;;;20831868;28;20225;-85
2023/07/20 13:42:20;;;;;;;0.52;0.30;;;;;;;;;;20845408;28;20558;-86
2023/07/20 13:52:22;;;;;;;0.70;0.40;;;;;;;;;;20846259;28;20228;-86
2023/07/20 14:02:24;;;;;;;0.32;0.30;;;;;;;;;;20852849;28;20233;-86
2023/07/20 14:12:29;;;;;;;0.40;0.30;;;;;;;;;;20827628;28;20229;-86
2023/07/20 14:22:38;;;;;;;1.55;0.47;;;;;;;;;;20881809;28;20241;-86
2023/07/20 14:32:51;;;;;;;0.52;0.30;;;;;;;;;;20845916;28;20225;-86
2023/07/20 14:43:06;;;;;;;0.65;0.43;;;;;;;;;;20875930;28;20297;-86
2023/07/20 14:53:43;;;;;;;1.80;0.47;;;;;;;;;;20873500;28;20669;-86
2023/07/20 15:03:53;;;;;;;0.65;0.30;;;;;;;;;;20830761;28;20283;-86
2023/07/20 15:14:07;;;;;;;0.40;0.32;;;;;;;;;;20851372;28;20803;-85
2023/07/20 15:24:10;;;;;;;1.85;0.55;;;;;;;;;;20858140;28;20251;-85
2023/07/20 15:34:18;;;;;;;0.50;0.30;;;;;;;;;;20852932;28;20213;-86
2023/07/20 15:44:31;;;;;;;0.40;0.38;;;;;;;;;;20856913;28;20241;-86
2023/07/20 15:55:07;;;;;;;;;;;;;;;;;;;;;
2023/07/20 16:05:20;;;;;;;0.77;0.35;;;;;;;;;;20857254;28;20290;-87
2023/07/20 16:15:27;;;;;;;0.77;0.38;;;;;;;;;;20838426;28;20225;-86
2023/07/20 16:25:32;;;;;;;1.40;0.43;;;;;;;;;;20851778;28;20233;-86
2023/07/20 16:35:57;;;;;;;0.60;0.50;;;;;;;;;;20861839;28;20371;-86
2023/07/20 16:58:38;;;;;;;1.38;0.40;;;27.60;70.20;;;;;;20277029;28;15979887;-85
2023/07/20 17:08:49;;;;;;;0.85;0.45;;;;;;;;;;20636875;22;20253;-69
2023/07/20 17:18:51;;;;;;;1.75;0.32;;;;;;;;;;20931590;28;20212;-69
2023/07/20 17:28:53;;;;;;;1.17;0.40;;;;;;;;;;20823120;28;20279;-68
2023/07/20 17:38:56;;;;;;;1.75;0.60;;;;;;;;;;20829616;28;20209;-68
2023/07/20 17:48:57;;;;;;;0.93;0.50;;;;;;;;;;20815576;28;20286;-68
2023/07/20 17:58:59;;;;;;;2.13;0.35;;;;;;;;;;20831695;28;20217;-69
2023/07/20 18:09:01;;;;;;;0.75;0.40;;;;;;;;;;20847385;28;20287;-69
2023/07/20 18:19:03;;;;;;;0.73;0.60;;;;;;;;;;20865427;28;20222;-69
2023/07/20 18:29:06;;;;;;;1.17;0.60;;;;;;;;;;20876013;28;20267;-68
2023/07/20 18:39:08;;;;;;;4.68;0.70;;;;;;;;;;20828624;28;20237;-68
2023/07/20 18:49:09;;;;;;;0.98;0.60;;;;;;;;;;20842053;28;20224;-68
2023/07/20 18:59:12;;;;;;;0.95;0.60;;;;;;;;;;20839700;28;20221;-68
2023/07/20 19:09:14;;;;;;;5.82;0.85;;;;;;;;;;20893309;22;20285;-71
2023/07/20 19:19:15;;;;;;;0.75;0.40;;;;;;;;;;20944251;28;20279;-71
2023/07/20 19:29:18;;;;;;;5.82;1.02;;;;;;;;;;20917647;28;20689;-71
2023/07/20 19:39:20;;;;;;;4.15;0.63;;;;;;;;;;20895093;28;20220;-71
2023/07/20 19:49:21;;;;;;;0.90;0.50;;;;;;;;;;20911300;28;20211;-71
2023/07/20 19:59:23;;;;;;;0.85;0.50;;;;;;;;;;20932560;28;20581;-71
2023/07/20 20:09:25;;;;;;;0.75;0.50;;;;;;;;;;20910843;28;20224;-72
2023/07/20 20:19:27;;;;;;;1.77;0.60;;;;;;;;;;20922560;28;20560;-71
2023/07/20 20:29:29;;;;;;;1.05;0.52;;;;;;;;;;20909306;28;20284;-71
2023/07/20 20:39:31;;;;;;;5.45;0.95;;;;;;;;;;20949954;28;20211;-71
2023/07/20 20:49:32;;;;;;;0.63;0.40;;;;;;;;;;20925121;28;20209;-71
2023/07/20 20:59:39;;;;;;;3.92;0.77;;;;;;;;;;20940751;28;20297;-71
2023/07/20 21:09:42;;;;;;;1.73;0.60;;;;;;;;;;20960802;28;20297;-71
2023/07/20 21:19:44;;;;;;;1.15;0.65;;;;;;;;;;20990182;28;20743;-71
2023/07/20 21:29:46;;;;;;;1.42;0.40;;;;;;;;;;20949610;28;20228;-71
2023/07/20 21:39:48;;;;;;;0.93;0.57;;;;;;;;;;20951402;28;20265;-71
2023/07/20 21:49:50;;;;;;;1.85;0.60;;;;;;;;;;20932121;28;20927;-71
2023/07/20 21:59:52;;;;;;;1.70;0.60;;;;;;;;;;20904864;28;20237;-71
2023/07/20 22:09:54;;;;;;;1.75;0.45;;;;;;;;;;20957568;28;20231;-72
2023/07/20 22:19:56;;;;;;;0.60;0.38;;;;;;;;;;20952998;28;20721;-71
2023/07/20 22:29:58;;;;;;;1.73;0.70;;;;;;;;;;20901016;28;20629;-70
2023/07/20 22:39:59;;;;;;;1.30;0.73;;;;;;;;;;20951091;28;20265;-71
2023/07/20 22:50:02;;;;;;;2.25;0.60;;;;;;;;;;20928291;28;20236;-71
2023/07/20 23:00:10;;;;;;;2.30;0.52;;;;;;;;;;20916486;28;20207;-71
2023/07/20 23:10:12;;;;;;;1.05;0.50;;;;;;;;;;20965989;28;20235;-70
2023/07/20 23:20:25;;;;;;;1.10;0.70;;;;;;;;;;20898543;28;20232;-71
2023/07/20 23:30:27;;;;;;;1.50;0.50;;;;;;;;;;20958603;28;20238;-70
2023/07/20 23:40:29;;;;;;;1.48;0.60;;;;;;;;;;20885439;28;20297;-71
2023/07/20 23:50:32;;;;;;;1.05;0.47;;;;;;;;;;20891090;28;20237;-71
